Time;durP1;ratioP1;P1;durP2;ratioP2;P2;SDS_P1;SDS_P2;PMS_P1;PMS_P2;Temp;Humidity;BMP_temperature;BMP_pressure;BME280_temperature;BME280_humidity;BME280_pressure;Samples;Min_cycle;Max_cycle;Signal;HPM_P1;HPM_P2
2021/03/30 11:58:45;;;;;;;3.37;1.97;;;8.60;26.30;;;;;;3839940;37;20469;-64
2021/03/30 12:01:11;;;;;;;4.25;2.00;;;8.50;28.20;;;;;;4398816;32;20188;-64
2021/03/30 12:03:38;;;;;;;3.87;2.17;;;8.80;28.60;;;;;;4398095;32;20116;-62
2021/03/30 12:06:07;;;;;;;3.42;2.22;;;8.90;26.70;;;;;;4376428;32;20113;-60
2021/03/30 12:08:34;;;;;;;3.65;2.20;;;8.70;28.50;;;;;;4376690;32;20129;-63
2021/03/30 12:11:01;;;;;;;2.87;1.95;;;8.90;29.00;;;;;;4395359;32;20112;-66
2021/03/30 12:13:27;;;;;;;3.60;2.17;;;9.50;27.80;;;;;;4387997;32;20669;-62
2021/03/30 12:15:54;;;;;;;4.00;2.03;;;9.40;28.60;;;;;;4390545;32;20972;-63
2021/03/30 12:18:20;;;;;;;4.65;2.35;;;8.70;26.00;;;;;;4391703;32;20217;-64
2021/03/30 12:20:47;;;;;;;4.03;2.03;;;8.70;28.40;;;;;;4380126;32;20165;-64
2021/03/30 12:23:13;;;;;;;3.45;2.00;;;8.60;28.20;;;;;;4398743;32;20081;-61
2021/03/30 12:25:39;;;;;;;7.43;2.75;;;8.80;28.70;;;;;;4397610;32;20074;-60
2021/03/30 12:28:05;;;;;;;7.03;2.97;;;8.50;27.70;;;;;;4398406;32;20094;-62
2021/03/30 12:30:32;;;;;;;5.43;2.40;;;8.30;28.00;;;;;;4381584;32;20089;-65
2021/03/30 12:32:59;;;;;;;4.10;2.47;;;8.60;28.10;;;;;;4385388;32;20159;-63
2021/03/30 12:35:26;;;;;;;5.20;2.53;;;8.50;28.10;;;;;;4388548;32;20097;-68
2021/03/30 12:37:54;;;;;;;4.18;1.83;;;8.50;27.90;;;;;;4395284;32;20839;-64
2021/03/30 12:40:21;;;;;;;3.15;2.05;;;8.40;28.20;;;;;;4384892;32;20173;-66
2021/03/30 12:42:48;;;;;;;4.47;2.10;;;8.70;28.30;;;;;;4392292;32;20530;-63
2021/03/30 12:45:14;;;;;;;5.00;2.30;;;8.50;27.40;;;;;;4404819;32;20100;-62
2021/03/30 12:47:41;;;;;;;3.15;1.90;;;8.50;27.20;;;;;;4384771;32;20109;-63
2021/03/30 12:50:08;;;;;;;4.60;2.40;;;8.80;27.80;;;;;;4404585;32;20096;-62
2021/03/30 12:52:34;;;;;;;4.18;1.85;;;8.50;27.00;;;;;;4401020;32;20108;-65
2021/03/30 12:55:06;;;;;;;4.30;2.10;;;8.40;26.20;;;;;;4411877;32;20528;-63
2021/03/30 12:57:34;;;;;;;5.68;2.10;;;8.50;27.10;;;;;;4395873;32;20076;-62
2021/03/30 13:00:01;;;;;;;4.32;2.40;;;8.50;27.20;;;;;;4404639;32;20200;-64
2021/03/30 13:02:28;;;;;;;3.83;2.20;;;8.30;26.30;;;;;;4381274;32;20554;-62
2021/03/30 13:04:54;;;;;;;7.55;2.50;;;8.30;27.10;;;;;;4409864;32;20178;-62
2021/03/30 13:07:20;;;;;;;4.18;2.08;;;8.30;26.40;;;;;;4391822;32;20115;-61
2021/03/30 13:09:47;;;;;;;5.37;2.40;;;8.40;26.00;;;;;;4408531;32;20086;-64
2021/03/30 13:12:14;;;;;;;4.47;2.17;;;8.30;25.90;;;;;;4393985;32;20593;-65
2021/03/30 13:14:40;;;;;;;6.60;2.40;;;8.50;25.60;;;;;;4397015;32;20082;-62
2021/03/30 13:17:07;;;;;;;4.10;1.95;;;8.50;25.60;;;;;;4396280;32;20081;-65
2021/03/30 13:19:33;;;;;;;9.50;2.40;;;8.20;27.20;;;;;;4391858;32;20207;-60
2021/03/30 13:22:00;;;;;;;5.62;2.40;;;8.30;26.60;;;;;;4381062;32;20209;-61
2021/03/30 13:24:30;;;;;;;6.70;2.30;;;8.40;26.50;;;;;;4378371;32;20088;-60
2021/03/30 13:26:56;;;;;;;6.82;2.90;;;8.50;28.80;;;;;;4368558;32;20472;-62
2021/03/30 13:29:22;;;;;;;4.78;2.35;;;8.50;27.90;;;;;;4391755;32;20551;-62
2021/03/30 13:31:48;;;;;;;6.82;2.70;;;8.40;27.40;;;;;;4395810;32;20532;-59
2021/03/30 13:34:14;;;;;;;5.62;2.85;;;8.40;27.30;;;;;;4394405;32;20145;-61
2021/03/30 13:36:40;;;;;;;5.93;3.03;;;8.40;29.50;;;;;;4378842;32;20102;-63
2021/03/30 13:39:07;;;;;;;4.30;2.40;;;8.50;28.70;;;;;;4398945;32;20089;-62
2021/03/30 13:41:33;;;;;;;4.37;2.55;;;8.30;29.20;;;;;;4372781;32;20065;-59
2021/03/30 13:43:59;;;;;;;5.72;2.55;;;8.40;28.10;;;;;;4380414;32;20062;-61
2021/03/30 13:46:25;;;;;;;6.55;2.50;;;8.30;27.00;;;;;;4387193;32;20108;-62
2021/03/30 13:48:51;;;;;;;7.35;2.20;;;8.20;27.10;;;;;;4389614;32;20182;-60
2021/03/30 13:51:18;;;;;;;5.55;2.50;;;8.20;27.20;;;;;;4391915;32;20617;-62
2021/03/30 13:53:44;;;;;;;10.45;2.67;;;8.20;27.20;;;;;;4391690;32;20096;-62
2021/03/30 13:56:10;;;;;;;4.37;2.40;;;8.10;27.90;;;;;;4397502;32;20452;-61
2021/03/30 13:58:36;;;;;;;9.27;2.87;;;8.10;28.40;;;;;;4393932;32;20078;-62
2021/03/30 14:01:02;;;;;;;13.23;3.37;;;8.10;28.40;;;;;;4357341;32;20094;-59
2021/03/30 14:03:29;;;;;;;9.40;3.12;;;8.00;27.90;;;;;;4380170;32;20070;-67
2021/03/30 14:05:55;;;;;;;10.55;3.42;;;7.90;29.80;;;;;;4380508;32;20070;-63
2021/03/30 14:08:21;;;;;;;8.20;2.70;;;8.00;28.30;;;;;;4383833;32;20104;-62
2021/03/30 14:10:47;;;;;;;12.48;3.70;;;8.00;27.80;;;;;;4388732;32;20070;-61
2021/03/30 14:13:19;;;;;;;9.18;2.90;;;7.80;29.30;;;;;;4400876;32;20112;-61
2021/03/30 14:15:57;;;;;;;5.97;2.72;;;7.70;28.90;;;;;;4395516;32;20505;-62
2021/03/30 14:18:38;;;;;;;6.87;2.58;;;7.70;28.30;;;;;;4384332;32;20100;-61
2021/03/30 14:21:10;;;;;;;9.48;2.92;;;7.60;28.80;;;;;;4389390;32;20086;-63
2021/03/30 14:23:50;;;;;;;10.07;3.33;;;7.50;28.30;;;;;;4391376;32;20822;-61
2021/03/30 14:26:24;;;;;;;5.28;2.60;;;7.60;28.40;;;;;;4380680;32;20084;-61
2021/03/30 14:28:51;;;;;;;9.07;3.03;;;7.50;29.10;;;;;;4383684;32;20082;-62
2021/03/30 14:31:22;;;;;;;11.50;3.10;;;7.50;30.40;;;;;;4393527;32;20196;-61
2021/03/30 14:33:49;;;;;;;9.25;3.10;;;7.50;29.10;;;;;;4379123;32;20194;-62
2021/03/30 14:36:16;;;;;;;9.02;3.37;;;7.30;29.60;;;;;;4395927;32;20448;-64
2021/03/30 14:38:44;;;;;;;17.08;3.33;;;7.20;30.00;;;;;;4379918;32;20112;-62
2021/03/30 14:41:11;;;;;;;9.38;3.50;;;7.30;29.80;;;;;;4394038;32;20069;-63
2021/03/30 14:43:46;;;;;;;11.25;3.17;;;7.10;28.90;;;;;;4390893;32;20187;-63
2021/03/30 14:55:15;;;;;;;20.48;4.43;;;6.80;32.00;;;;;;4312319;33;20107;-64
2021/03/30 15:00:18;;;;;;;11.73;3.97;;;6.70;33.80;;;;;;4338541;32;20124;-63
2021/03/30 15:05:29;;;;;;;17.35;4.65;;;6.60;41.60;;;;;;4385335;32;20106;-64
2021/03/30 15:07:56;;;;;;;12.48;4.10;;;6.40;43.00;;;;;;4399846;32;20477;-61
2021/03/30 15:10:22;;;;;;;14.20;4.53;;;6.30;43.50;;;;;;4391172;32;20077;-63
2021/03/30 15:12:49;;;;;;;13.55;4.25;;;6.30;41.70;;;;;;4383657;32;20074;-60
2021/03/30 15:15:16;;;;;;;10.80;4.57;;;6.30;41.50;;;;;;4369257;32;20177;-62
2021/03/30 15:17:42;;;;;;;11.43;4.68;;;6.30;40.20;;;;;;4371161;32;20070;-60
2021/03/30 15:20:09;;;;;;;11.35;4.32;;;6.20;39.90;;;;;;4378081;32;20105;-62
2021/03/30 15:22:37;;;;;;;8.13;4.22;;;6.10;41.30;;;;;;4392076;32;20081;-60
2021/03/30 15:25:05;;;;;;;19.27;5.45;;;6.10;40.20;;;;;;4365463;32;20167;-61
2021/03/30 15:27:31;;;;;;;12.93;5.53;;;6.10;39.50;;;;;;4386609;32;20594;-58
2021/03/30 15:29:57;;;;;;;11.52;5.85;;;6.10;38.20;;;;;;4368570;32;20579;-60
2021/03/30 15:32:24;;;;;;;11.98;4.97;;;6.00;36.80;;;;;;4380485;32;20505;-60
2021/03/30 15:34:54;;;;;;;11.43;5.35;;;6.00;36.50;;;;;;4364037;32;20078;-59
2021/03/30 15:37:20;;;;;;;11.80;5.18;;;5.90;37.60;;;;;;4361272;32;20520;-61
2021/03/30 15:39:46;;;;;;;15.27;5.32;;;5.90;36.90;;;;;;4363516;32;20086;-60
2021/03/30 15:42:13;;;;;;;11.38;4.78;;;5.90;38.70;;;;;;4380679;32;20129;-60
2021/03/30 15:47:19;;;;;;;9.68;4.62;;;5.70;40.40;;;;;;4376939;32;20541;-59
2021/03/30 15:49:53;;;;;;;15.02;4.82;;;5.80;38.80;;;;;;4376427;32;20069;-59
2021/03/30 15:52:20;;;;;;;17.30;5.35;;;5.80;39.40;;;;;;4365286;32;20089;-59
2021/03/30 15:57:27;;;;;;;10.80;4.35;;;5.50;41.00;;;;;;4367789;32;20078;-61
2021/03/30 15:59:55;;;;;;;10.40;4.53;;;5.30;41.60;;;;;;4382621;32;20156;-60
2021/03/30 16:02:21;;;;;;;14.05;4.65;;;5.50;41.60;;;;;;4364633;32;20081;-59
2021/03/30 16:04:48;;;;;;;12.00;3.92;;;5.40;42.30;;;;;;4384877;32;20078;-59
2021/03/30 16:07:15;;;;;;;11.85;4.03;;;5.40;41.30;;;;;;4371235;32;20503;-60
2021/03/30 16:09:43;;;;;;;14.55;5.32;;;5.40;42.30;;;;;;4378310;32;20678;-60
2021/03/30 16:12:10;;;;;;;15.68;4.00;;;5.30;45.80;;;;;;4375927;32;20082;-61
2021/03/30 16:14:37;;;;;;;13.82;4.03;;;5.50;42.20;;;;;;4377916;32;20096;-60
2021/03/30 16:17:04;;;;;;;12.48;4.70;;;5.50;41.80;;;;;;4374623;32;20157;-60
2021/03/30 16:19:31;;;;;;;16.92;4.78;;;5.40;42.50;;;;;;4364419;32;20088;-59
2021/03/30 16:21:57;;;;;;;12.63;4.95;;;5.40;41.30;;;;;;4376470;32;20150;-59
2021/03/30 16:24:23;;;;;;;10.38;4.60;;;5.40;40.80;;;;;;4384827;32;20077;-60
2021/03/30 16:26:49;;;;;;;12.52;4.37;;;5.40;39.40;;;;;;4385278;32;20540;-59
2021/03/30 16:29:16;;;;;;;13.60;4.90;;;5.70;37.70;;;;;;4398617;32;20069;-59
2021/03/30 16:31:43;;;;;;;8.43;4.10;;;6.00;36.00;;;;;;4376930;32;20077;-60
2021/03/30 16:34:10;;;;;;;10.50;5.30;;;5.70;35.50;;;;;;4379641;32;20547;-60
2021/03/30 16:36:36;;;;;;;10.10;4.57;;;5.60;36.70;;;;;;4362731;32;20089;-59
2021/03/30 16:39:04;;;;;;;11.20;4.85;;;5.60;35.90;;;;;;4376511;32;20147;-61
2021/03/30 16:41:30;;;;;;;11.00;4.47;;;5.10;40.00;;;;;;4375600;32;20108;-59
2021/03/30 16:43:56;;;;;;;11.38;4.53;;;5.50;35.40;;;;;;4371345;32;20085;-59
2021/03/30 16:46:23;;;;;;;11.02;4.70;;;5.30;36.70;;;;;;4379278;32;20069;-59
2021/03/30 16:48:49;;;;;;;12.50;5.12;;;5.00;38.40;;;;;;4380560;32;20168;-60
2021/03/30 16:51:23;;;;;;;10.80;5.18;;;5.30;35.70;;;;;;4380358;32;20097;-60
2021/03/30 16:53:49;;;;;;;11.60;4.90;;;5.30;35.70;;;;;;4383204;32;20166;-60
2021/03/30 16:56:16;;;;;;;10.70;5.35;;;5.20;36.60;;;;;;4392654;32;20070;-59
2021/03/30 16:58:42;;;;;;;11.12;4.90;;;5.10;36.40;;;;;;4381082;32;20077;-59
2021/03/30 17:01:09;;;;;;;11.57;4.93;;;5.10;36.60;;;;;;4383223;32;20093;-59
2021/03/30 17:03:35;;;;;;;9.98;4.75;;;4.90;36.70;;;;;;4392340;32;20150;-60
2021/03/30 17:06:02;;;;;;;14.43;4.57;;;4.90;38.10;;;;;;4374891;32;20091;-60
2021/03/30 17:08:31;;;;;;;14.55;4.78;;;5.10;36.50;;;;;;4384497;32;20084;-59
2021/03/30 17:10:57;;;;;;;13.45;5.07;;;5.00;36.30;;;;;;4366768;32;20113;-59
2021/03/30 17:13:23;;;;;;;12.48;4.30;;;5.00;35.90;;;;;;4379056;32;20073;-60
2021/03/30 17:15:50;;;;;;;7.95;3.60;;;4.90;36.30;;;;;;4381167;32;20101;-59
2021/03/30 17:18:16;;;;;;;7.28;3.95;;;4.80;36.30;;;;;;4391149;32;20102;-60
2021/03/30 17:20:42;;;;;;;7.50;3.60;;;4.80;35.50;;;;;;4374325;32;20077;-59
2021/03/30 17:23:09;;;;;;;7.90;3.58;;;4.70;35.00;;;;;;4368088;32;20125;-60
2021/03/30 17:25:36;;;;;;;7.15;3.22;;;4.70;34.70;;;;;;4368688;32;20058;-60
2021/03/30 17:28:02;;;;;;;6.57;3.60;;;4.80;34.40;;;;;;4382407;32;20523;-60
2021/03/30 17:30:30;;;;;;;5.90;2.92;;;4.90;34.10;;;;;;4373473;32;20070;-61
2021/03/30 17:32:57;;;;;;;5.37;3.08;;;4.80;33.70;;;;;;4355614;32;20489;-59
2021/03/30 17:35:23;;;;;;;9.38;3.42;;;4.80;33.50;;;;;;4368266;32;20210;-60
2021/03/30 17:37:50;;;;;;;4.93;3.00;;;4.90;33.10;;;;;;4371203;32;20075;-59
2021/03/30 17:40:19;;;;;;;6.93;3.05;;;4.80;33.00;;;;;;4377978;32;20093;-59
2021/03/30 17:42:45;;;;;;;6.85;3.37;;;4.90;32.60;;;;;;4387321;32;20153;-61
2021/03/30 17:45:14;;;;;;;11.12;3.62;;;4.90;32.40;;;;;;4388605;32;20471;-59
2021/03/30 17:47:40;;;;;;;7.07;3.37;;;4.80;32.80;;;;;;4380631;32;20070;-60
2021/03/30 17:50:09;;;;;;;6.97;3.00;;;4.80;32.90;;;;;;4370948;32;20085;-59
2021/03/30 17:52:36;;;;;;;6.37;3.22;;;4.70;33.00;;;;;;4378330;32;20591;-59
2021/03/30 17:55:03;;;;;;;5.75;2.40;;;4.70;33.50;;;;;;4378817;32;20101;-62
2021/03/30 17:57:29;;;;;;;7.55;3.10;;;4.70;33.60;;;;;;4383649;32;20054;-59
2021/03/30 17:59:55;;;;;;;6.93;3.00;;;4.60;33.90;;;;;;4388947;32;20511;-61
2021/03/30 18:02:21;;;;;;;9.77;3.17;;;4.60;34.30;;;;;;4390813;32;20070;-60
2021/03/30 18:04:48;;;;;;;6.57;3.10;;;4.50;35.20;;;;;;4399267;32;20171;-60
2021/03/30 18:07:14;;;;;;;5.22;2.87;;;4.40;35.20;;;;;;4383673;32;20096;-61
2021/03/30 18:09:40;;;;;;;7.60;2.87;;;4.50;35.20;;;;;;4401348;32;20117;-59
2021/03/30 18:12:08;;;;;;;4.78;3.05;;;4.50;35.20;;;;;;4365453;32;20070;-60
2021/03/30 18:14:34;;;;;;;5.40;2.83;;;4.50;35.00;;;;;;4366802;32;20239;-59
2021/03/30 18:17:01;;;;;;;6.68;2.83;;;4.60;34.90;;;;;;4387884;32;20085;-61
2021/03/30 18:19:28;;;;;;;8.23;3.15;;;4.60;35.30;;;;;;4365926;32;20091;-59
2021/03/30 18:21:54;;;;;;;6.12;2.90;;;4.50;35.30;;;;;;4366081;32;20075;-59
2021/03/30 18:24:21;;;;;;;6.45;2.70;;;4.50;35.20;;;;;;4383575;32;20484;-61
2021/03/30 18:26:47;;;;;;;9.05;3.53;;;4.50;36.00;;;;;;4377872;32;20118;-61
2021/03/30 18:29:16;;;;;;;8.27;3.53;;;4.50;35.90;;;;;;4389926;32;20150;-60
2021/03/30 18:31:43;;;;;;;5.10;2.97;;;4.50;36.10;;;;;;4380097;32;20080;-60
2021/03/30 18:34:10;;;;;;;6.85;3.00;;;4.50;35.80;;;;;;4352674;32;20078;-60
2021/03/30 18:36:37;;;;;;;5.22;3.17;;;4.60;35.80;;;;;;4384053;32;20064;-61
2021/03/30 18:39:04;;;;;;;6.15;3.00;;;4.50;36.00;;;;;;4349911;32;20426;-60
2021/03/30 18:41:32;;;;;;;7.05;3.20;;;4.50;36.10;;;;;;4377728;32;20054;-60
2021/03/30 18:44:00;;;;;;;7.05;3.35;;;4.50;36.40;;;;;;4367724;32;20476;-61
2021/03/30 18:46:26;;;;;;;5.82;3.10;;;4.50;36.70;;;;;;4359263;32;20077;-60
2021/03/30 18:48:53;;;;;;;7.00;2.87;;;4.40;37.00;;;;;;4376765;32;20077;-59
2021/03/30 18:51:20;;;;;;;6.18;3.28;;;4.30;37.50;;;;;;4377634;32;20517;-58
2021/03/30 18:53:46;;;;;;;5.37;2.85;;;4.30;37.60;;;;;;4383948;32;20096;-62
2021/03/30 18:56:15;;;;;;;8.52;3.20;;;4.30;37.80;;;;;;4396953;32;20085;-59
2021/03/30 18:58:41;;;;;;;6.28;3.00;;;4.20;37.90;;;;;;4385724;32;20078;-60
2021/03/30 19:01:08;;;;;;;5.80;2.90;;;4.20;38.00;;;;;;4378625;32;20166;-59
2021/03/30 19:03:37;;;;;;;5.40;2.90;;;4.20;38.40;;;;;;4389127;32;20516;-60
2021/03/30 19:06:06;;;;;;;4.87;2.83;;;4.00;38.90;;;;;;4380820;32;20065;-61
2021/03/30 19:08:32;;;;;;;7.50;3.10;;;4.10;38.60;;;;;;4383357;32;20163;-59
2021/03/30 19:10:59;;;;;;;4.20;2.90;;;4.00;39.10;;;;;;4364975;32;20069;-60
2021/03/30 19:13:25;;;;;;;8.02;2.65;;;3.90;39.30;;;;;;4390485;32;20076;-60
2021/03/30 19:15:51;;;;;;;4.85;2.80;;;3.90;39.60;;;;;;4367669;32;20074;-60
2021/03/30 19:18:18;;;;;;;5.12;3.00;;;3.80;39.80;;;;;;4357220;32;20082;-61
2021/03/30 19:20:44;;;;;;;5.30;2.83;;;3.70;40.20;;;;;;4390094;32;20069;-59
2021/03/30 19:23:11;;;;;;;5.60;3.00;;;3.70;40.50;;;;;;4363911;32;20066;-60
2021/03/30 19:25:37;;;;;;;6.22;2.78;;;3.60;40.90;;;;;;4387526;32;20666;-61
2021/03/30 19:28:09;;;;;;;5.40;2.50;;;3.60;41.20;;;;;;4352117;32;20073;-59
2021/03/30 19:33:02;;;;;;;4.72;2.60;;;3.50;42.40;;;;;;4378074;32;20161;-60
2021/03/30 19:37:58;;;;;;;6.22;3.00;;;3.40;43.20;;;;;;4390376;32;20077;-60
2021/03/30 19:40:24;;;;;;;4.43;3.10;;;3.20;44.00;;;;;;4353499;32;20155;-60
2021/03/30 19:42:51;;;;;;;5.25;2.90;;;3.20;44.50;;;;;;4377143;32;20508;-59
2021/03/30 19:45:17;;;;;;;4.78;2.85;;;3.10;44.70;;;;;;4379007;32;20448;-61
2021/03/30 19:47:43;;;;;;;6.78;3.10;;;3.10;45.20;;;;;;4377457;32;20137;-59
2021/03/30 19:50:11;;;;;;;5.35;2.90;;;3.10;44.90;;;;;;4359354;32;20077;-60
2021/03/30 19:52:39;;;;;;;4.70;2.67;;;3.00;45.20;;;;;;4381753;32;20231;-60
2021/03/30 19:55:07;;;;;;;4.30;2.55;;;3.00;45.10;;;;;;4379206;32;20084;-61
2021/03/30 19:57:33;;;;;;;8.10;3.17;;;2.90;45.40;;;;;;4390642;32;20633;-60
2021/03/30 20:00:00;;;;;;;6.07;3.20;;;2.90;45.10;;;;;;4376895;32;20141;-60
2021/03/30 20:02:27;;;;;;;9.30;2.95;;;2.90;45.00;;;;;;4363497;32;20512;-59
2021/03/30 20:04:53;;;;;;;6.40;3.12;;;2.90;45.30;;;;;;4389259;32;20076;-60
2021/03/30 20:07:20;;;;;;;6.10;3.03;;;2.80;44.90;;;;;;4371297;32;20157;-61
2021/03/30 20:09:46;;;;;;;7.90;2.92;;;2.90;45.00;;;;;;4364421;32;20109;-62
2021/03/30 20:12:12;;;;;;;6.82;2.65;;;3.00;44.60;;;;;;4394441;32;20070;-60
2021/03/30 20:14:39;;;;;;;5.18;2.62;;;3.00;43.70;;;;;;4372846;32;20082;-62
2021/03/30 20:17:09;;;;;;;4.15;2.87;;;3.20;42.60;;;;;;4374631;32;20094;-58
2021/03/30 20:19:38;;;;;;;5.20;2.72;;;3.10;42.70;;;;;;4378979;32;20367;-60
2021/03/30 20:22:05;;;;;;;6.72;3.45;;;3.00;43.30;;;;;;4379986;32;20070;-59
2021/03/30 20:24:31;;;;;;;4.47;2.60;;;3.10;43.10;;;;;;4367447;32;20110;-61
2021/03/30 20:26:57;;;;;;;4.60;2.67;;;3.10;42.70;;;;;;4355028;32;20164;-59
2021/03/30 20:29:23;;;;;;;4.20;2.70;;;3.00;43.20;;;;;;4386004;32;20072;-60
2021/03/30 20:31:50;;;;;;;4.25;2.62;;;3.10;42.50;;;;;;4367461;32;20086;-61
2021/03/30 20:34:18;;;;;;;3.53;2.40;;;3.10;41.80;;;;;;4392811;32;20081;-62
2021/03/30 20:36:44;;;;;;;5.18;2.70;;;3.10;41.90;;;;;;4387343;32;20504;-60
2021/03/30 20:39:15;;;;;;;7.07;2.90;;;3.10;41.60;;;;;;4378177;32;20062;-60
2021/03/30 20:41:41;;;;;;;5.47;2.72;;;3.20;41.20;;;;;;4379960;32;20084;-59
2021/03/30 20:44:08;;;;;;;4.15;2.50;;;3.20;41.00;;;;;;4394468;32;20108;-61
2021/03/30 20:46:34;;;;;;;4.55;2.62;;;3.10;41.00;;;;;;4386171;32;20524;-59
2021/03/30 20:49:00;;;;;;;4.22;2.47;;;3.00;41.60;;;;;;4395835;32;20076;-59
2021/03/30 20:51:26;;;;;;;4.97;2.50;;;3.00;41.30;;;;;;4381573;32;20077;-60
2021/03/30 20:53:53;;;;;;;4.07;2.87;;;2.90;41.70;;;;;;4388541;32;20467;-61
2021/03/30 20:56:19;;;;;;;4.50;2.62;;;3.00;41.40;;;;;;4385134;32;20145;-61
2021/03/30 20:58:45;;;;;;;4.60;2.53;;;3.00;41.30;;;;;;4392137;32;20074;-60
2021/03/30 21:01:11;;;;;;;4.65;2.60;;;2.90;41.20;;;;;;4381645;32;20527;-59
2021/03/30 21:03:37;;;;;;;3.62;2.50;;;3.00;40.70;;;;;;4396575;32;20077;-60
2021/03/30 21:06:05;;;;;;;3.55;2.37;;;3.00;40.60;;;;;;4400028;32;20070;-60
2021/03/30 21:08:31;;;;;;;4.82;2.60;;;3.00;40.10;;;;;;4366886;32;20062;-60
2021/03/30 21:10:57;;;;;;;5.25;2.50;;;2.90;40.40;;;;;;4391323;32;20182;-60
2021/03/30 21:13:23;;;;;;;5.22;2.37;;;2.90;40.50;;;;;;4406877;32;20612;-61
2021/03/30 21:15:49;;;;;;;3.90;2.40;;;2.80;40.70;;;;;;4376032;32;20070;-61
2021/03/30 21:18:15;;;;;;;4.40;2.40;;;2.80;40.70;;;;;;4371920;32;20219;-60
2021/03/30 21:20:42;;;;;;;4.03;2.50;;;2.90;40.30;;;;;;4402329;32;20542;-59
2021/03/30 21:23:08;;;;;;;8.57;2.60;;;2.90;40.10;;;;;;4378455;32;20078;-59
2021/03/30 21:25:35;;;;;;;5.60;2.50;;;2.80;40.40;;;;;;4377578;32;20089;-59
2021/03/30 21:28:01;;;;;;;3.55;2.20;;;2.80;40.40;;;;;;4366380;32;20101;-61
2021/03/30 21:30:27;;;;;;;4.85;2.50;;;2.70;40.70;;;;;;4396631;32;20266;-59
2021/03/30 21:32:53;;;;;;;4.37;2.85;;;2.70;41.00;;;;;;4392505;32;20069;-61
2021/03/30 21:37:59;;;;;;;5.90;2.60;;;2.70;41.20;;;;;;3812964;37;20445;-59
2021/03/30 21:40:26;;;;;;;6.15;2.85;;;2.70;41.10;;;;;;4362537;32;20077;-60
2021/03/30 21:42:52;;;;;;;4.12;2.40;;;2.60;41.50;;;;;;4378933;32;20150;-61
2021/03/30 21:45:19;;;;;;;4.18;2.72;;;2.50;41.60;;;;;;4389004;32;20073;-59
2021/03/30 21:47:45;;;;;;;3.42;2.40;;;2.50;42.20;;;;;;4385370;32;20090;-60
2021/03/30 21:50:13;;;;;;;4.62;2.62;;;2.40;42.20;;;;;;4354905;32;20086;-59
2021/03/30 21:52:40;;;;;;;5.00;2.75;;;2.30;42.80;;;;;;4381619;32;20062;-59
2021/03/30 21:55:08;;;;;;;4.30;2.80;;;2.30;43.30;;;;;;4374929;32;20079;-61
2021/03/30 21:57:34;;;;;;;5.82;2.45;;;2.30;43.40;;;;;;4374715;32;20081;-60
2021/03/30 22:00:01;;;;;;;4.32;2.70;;;2.30;43.40;;;;;;4362501;32;20085;-58
2021/03/30 22:02:27;;;;;;;3.72;2.50;;;2.30;43.50;;;;;;4387352;32;20105;-60
2021/03/30 22:04:53;;;;;;;5.30;2.60;;;2.20;44.00;;;;;;4375033;32;20070;-59
2021/03/30 22:07:19;;;;;;;2.90;2.33;;;2.20;43.60;;;;;;4386542;32;20069;-60
2021/03/30 22:09:47;;;;;;;4.53;2.60;;;2.30;43.30;;;;;;4385451;32;20216;-60
2021/03/30 22:12:15;;;;;;;5.22;2.78;;;2.30;43.20;;;;;;4380023;32;20464;-60
2021/03/30 22:14:41;;;;;;;5.28;2.78;;;2.20;43.40;;;;;;4385030;32;20447;-60
2021/03/30 22:17:09;;;;;;;4.90;2.87;;;2.30;43.10;;;;;;4363606;32;20121;-61
2021/03/30 22:19:36;;;;;;;5.20;2.72;;;2.20;43.30;;;;;;4349946;32;20144;-61
2021/03/30 22:22:03;;;;;;;5.05;2.90;;;2.20;43.30;;;;;;4361563;32;20512;-60
2021/03/30 22:24:29;;;;;;;4.12;2.60;;;2.10;43.60;;;;;;4338087;32;20082;-59
2021/03/30 22:26:57;;;;;;;5.57;2.47;;;2.00;44.10;;;;;;4374653;32;20145;-60
2021/03/30 22:29:23;;;;;;;3.00;2.20;;;2.00;44.00;;;;;;4359864;32;20505;-61
2021/03/30 22:31:52;;;;;;;4.50;2.72;;;1.90;44.60;;;;;;4337734;32;20081;-61
2021/03/30 22:34:19;;;;;;;4.35;2.40;;;2.00;44.60;;;;;;4362175;32;20081;-61
2021/03/30 22:36:45;;;;;;;4.22;2.20;;;2.00;44.50;;;;;;4348737;32;20177;-60
2021/03/30 22:39:12;;;;;;;4.72;2.58;;;1.90;44.60;;;;;;4361794;32;20609;-60
2021/03/30 22:41:41;;;;;;;4.28;2.10;;;1.80;45.40;;;;;;4333085;32;20199;-60
2021/03/30 22:44:08;;;;;;;3.70;2.20;;;1.80;45.90;;;;;;4322914;32;20082;-61
2021/03/30 22:46:34;;;;;;;4.35;2.12;;;1.70;46.00;;;;;;4356858;32;20543;-59
2021/03/30 22:49:01;;;;;;;4.15;2.50;;;1.70;46.00;;;;;;4352974;32;20461;-59
2021/03/30 22:51:27;;;;;;;4.43;2.05;;;1.70;46.30;;;;;;4349637;32;20097;-59
2021/03/30 22:53:53;;;;;;;4.72;2.25;;;1.60;46.50;;;;;;4326645;32;20449;-61
2021/03/30 22:56:19;;;;;;;3.97;2.40;;;1.70;46.70;;;;;;4363856;32;20464;-61
2021/03/30 22:58:46;;;;;;;4.25;2.30;;;1.50;47.00;;;;;;4338777;32;20089;-59
2021/03/30 23:01:12;;;;;;;5.65;2.58;;;1.50;47.40;;;;;;4384912;32;20503;-60
2021/03/30 23:03:38;;;;;;;4.85;2.40;;;1.50;47.30;;;;;;4371505;32;20082;-59
2021/03/30 23:06:04;;;;;;;6.35;2.47;;;1.50;47.10;;;;;;4357300;32;20067;-59
2021/03/30 23:08:31;;;;;;;4.53;2.40;;;1.60;46.90;;;;;;4350517;32;20094;-60
2021/03/30 23:10:57;;;;;;;3.33;2.33;;;1.60;47.20;;;;;;4333775;32;20536;-59
2021/03/30 23:13:23;;;;;;;5.32;2.58;;;1.50;47.00;;;;;;4364334;32;20561;-59
2021/03/30 23:15:49;;;;;;;4.70;3.00;;;1.50;47.40;;;;;;4352002;32;20543;-59
2021/03/30 23:18:15;;;;;;;4.03;2.62;;;1.50;48.90;;;;;;4363663;32;20169;-60
2021/03/30 23:20:42;;;;;;;3.40;2.28;;;1.50;47.70;;;;;;4338837;32;20114;-59
2021/03/30 23:23:08;;;;;;;3.75;2.15;;;1.50;47.60;;;;;;4337694;32;20158;-60
2021/03/30 23:25:34;;;;;;;3.40;2.10;;;1.40;47.70;;;;;;4350796;32;20090;-61
2021/03/30 23:28:01;;;;;;;6.85;2.40;;;1.40;47.70;;;;;;4337442;32;20894;-60
2021/03/30 23:30:27;;;;;;;3.78;2.20;;;1.30;48.20;;;;;;4363724;32;20070;-60
2021/03/30 23:32:53;;;;;;;6.07;2.37;;;1.30;48.60;;;;;;4351295;32;20089;-59
2021/03/30 23:35:26;;;;;;;3.92;2.40;;;1.20;49.30;;;;;;4339355;32;20440;-61
2021/03/30 23:37:53;;;;;;;4.97;2.10;;;1.10;49.50;;;;;;4339694;32;20093;-59
2021/03/30 23:40:20;;;;;;;2.92;2.15;;;1.00;50.40;;;;;;4342258;32;20459;-59
2021/03/30 23:42:46;;;;;;;5.70;2.60;;;0.90;50.90;;;;;;4326947;32;20163;-60
2021/03/30 23:45:14;;;;;;;2.58;1.90;;;0.90;51.00;;;;;;4324234;32;20230;-60
2021/03/30 23:47:40;;;;;;;3.15;2.20;;;0.90;51.10;;;;;;4351188;32;20101;-60
2021/03/30 23:50:09;;;;;;;4.75;2.58;;;1.00;50.60;;;;;;4350694;32;20096;-59
2021/03/30 23:52:35;;;;;;;4.62;2.35;;;0.90;51.00;;;;;;4335918;32;20073;-59
2021/03/30 23:55:01;;;;;;;3.75;2.10;;;0.90;51.10;;;;;;4348297;32;20070;-59
2021/03/30 23:57:27;;;;;;;3.12;2.20;;;0.90;51.50;;;;;;4350902;32;20441;-59
2021/03/30 23:59:54;;;;;;;6.28;2.45;;;0.80;51.80;;;;;;4336994;32;20101;-61
